Time;durP1;ratioP1;P1;durP2;ratioP2;P2;SDS_P1;SDS_P2;PMS_P1;PMS_P2;Temp;Humidity;BMP_temperature;BMP_pressure;BME280_temperature;BME280_humidity;BME280_pressure;Samples;Min_cycle;Max_cycle;Signal;HPM_P1;HPM_P2
2022/07/07 00:01:08;;;;;;;2.57;2.37;;;;;;;15.42;60.37;100156.84;4927986;29;20560;-77
2022/07/07 00:03:34;;;;;;;2.50;2.30;;;;;;;15.50;60.24;100151.00;4922758;29;20498;-75
2022/07/07 00:06:00;;;;;;;2.90;1.87;;;;;;;15.55;60.01;100150.63;4930249;29;20225;-76
2022/07/07 00:08:26;;;;;;;2.50;2.03;;;;;;;15.58;59.65;100151.25;4930025;29;20461;-76
2022/07/07 00:10:52;;;;;;;3.20;2.20;;;;;;;15.58;59.73;100156.53;4931087;29;20858;-77
2022/07/07 00:13:18;;;;;;;2.43;2.07;;;;;;;15.52;59.81;100151.69;4927051;29;20707;-76
2022/07/07 00:15:45;;;;;;;2.73;1.93;;;;;;;15.47;60.09;100153.84;4926543;29;20527;-76
2022/07/07 00:18:14;;;;;;;2.60;2.23;;;;;;;15.44;60.39;100162.84;4927003;29;20272;-76
2022/07/07 00:20:40;;;;;;;4.53;2.00;;;;;;;15.34;60.81;100158.38;4927918;29;20495;-76
2022/07/07 00:23:05;;;;;;;2.10;1.90;;;;;;;15.22;61.22;100158.31;4927396;29;20922;-76
2022/07/07 00:25:31;;;;;;;2.43;2.07;;;;;;;15.10;61.79;100159.25;4926402;29;20216;-76
2022/07/07 00:27:56;;;;;;;3.77;2.63;;;;;;;14.96;62.46;100159.41;4927254;29;20205;-76
2022/07/07 00:30:22;;;;;;;5.47;1.87;;;;;;;14.80;62.83;100159.69;4977902;28;20610;-76
2022/07/07 00:32:48;;;;;;;4.10;2.70;;;;;;;14.69;63.34;100162.25;4988292;28;20516;-76
2022/07/07 00:35:14;;;;;;;3.93;2.67;;;;;;;14.56;63.98;100165.78;4987038;28;20199;-76
2022/07/07 00:37:39;;;;;;;3.73;2.10;;;;;;;14.45;64.24;100165.66;4982562;28;20863;-76
2022/07/07 00:40:05;;;;;;;2.67;2.30;;;;;;;14.41;64.42;100163.34;4985184;28;20229;-77
2022/07/07 00:42:31;;;;;;;7.10;2.63;;;;;;;14.34;64.75;100161.13;4986263;28;20269;-76
2022/07/07 00:44:56;;;;;;;5.53;2.67;;;;;;;14.30;64.87;100164.94;4983755;28;20481;-76
2022/07/07 00:47:22;;;;;;;4.00;2.17;;;;;;;14.25;64.86;100160.94;4984969;28;20291;-76
2022/07/07 00:49:47;;;;;;;2.57;2.33;;;;;;;14.22;65.05;100169.91;4986296;28;20523;-76
2022/07/07 00:52:17;;;;;;;3.10;2.80;;;;;;;14.21;65.05;100173.53;4986442;28;20248;-76
2022/07/07 00:54:59;;;;;;;4.10;2.90;;;;;;;14.23;65.02;100176.91;4985649;28;20240;-76
2022/07/07 00:57:29;;;;;;;1.92;1.83;;;;;;;14.30;64.84;100166.75;4984921;28;20457;-76
2022/07/07 00:59:58;;;;;;;2.83;2.55;;;;;;;14.36;64.27;100159.22;4985429;28;20831;-76
2022/07/07 01:02:23;;;;;;;2.67;2.23;;;;;;;14.41;64.41;100163.34;4986192;28;20710;-76
2022/07/07 01:04:49;;;;;;;2.90;1.97;;;;;;;14.46;64.06;100153.28;4981546;28;21103;-77
2022/07/07 01:07:15;;;;;;;4.13;2.10;;;;;;;14.48;64.14;100159.31;4983668;28;20239;-76
2022/07/07 01:09:42;;;;;;;2.90;2.43;;;;;;;14.49;64.10;100156.56;4986000;28;20621;-77
2022/07/07 01:12:08;;;;;;;3.13;2.92;;;;;;;14.52;63.97;100147.56;4985746;28;21001;-77
2022/07/07 01:14:33;;;;;;;3.10;2.00;;;;;;;14.50;63.61;100152.09;4985980;28;20289;-76
2022/07/07 01:16:59;;;;;;;2.80;2.60;;;;;;;14.44;63.61;100141.97;4982046;28;20458;-76
2022/07/07 01:19:30;;;;;;;2.90;2.60;;;;;;;14.42;63.60;100142.09;4985892;28;20210;-76
2022/07/07 01:22:16;;;;;;;5.47;2.60;;;;;;;14.35;63.64;100132.91;4984769;28;20264;-76
2022/07/07 01:24:42;;;;;;;2.57;2.37;;;;;;;14.22;63.81;100130.28;4983881;28;20457;-76
2022/07/07 01:27:13;;;;;;;5.13;2.70;;;;;;;14.13;64.14;100136.22;4983211;28;20833;-76
2022/07/07 01:29:41;;;;;;;3.38;2.63;;;;;;;14.08;64.25;100127.78;4981158;28;20466;-76
2022/07/07 01:32:08;;;;;;;4.15;2.22;;;;;;;14.04;64.53;100124.50;4984231;28;20300;-76
2022/07/07 01:34:37;;;;;;;2.60;2.40;;;;;;;13.98;65.03;100129.34;4983250;28;20216;-76
2022/07/07 01:37:04;;;;;;;2.80;2.50;;;;;;;13.86;65.85;100121.34;4983720;28;20219;-76
2022/07/07 01:39:29;;;;;;;2.65;2.42;;;;;;;13.80;66.07;100126.19;4982074;28;20226;-76
2022/07/07 01:41:55;;;;;;;2.90;2.17;;;;;;;13.77;66.35;100123.75;4983931;28;20568;-76
2022/07/07 01:44:20;;;;;;;2.37;1.97;;;;;;;13.82;66.14;100114.56;4983029;28;20214;-76
2022/07/07 01:46:45;;;;;;;4.00;2.30;;;;;;;13.89;65.92;100115.00;4983951;28;20225;-76
2022/07/07 01:49:11;;;;;;;4.60;2.07;;;;;;;13.93;65.77;100122.63;4982464;28;20205;-76
2022/07/07 01:51:38;;;;;;;2.90;2.60;;;;;;;14.00;65.52;100114.25;4984703;28;20289;-76
2022/07/07 01:54:04;;;;;;;2.60;2.10;;;;;;;14.03;65.44;100114.03;4985015;28;20245;-76
2022/07/07 01:56:29;;;;;;;3.10;2.63;;;;;;;14.02;65.44;100109.72;4983758;28;20720;-76
2022/07/07 01:58:54;;;;;;;3.73;2.47;;;;;;;14.06;65.32;100113.81;4983325;28;20346;-76
2022/07/07 02:01:20;;;;;;;3.63;2.30;;;;;;;14.10;65.31;100107.38;4980776;28;20237;-76
2022/07/07 02:03:45;;;;;;;4.30;2.50;;;;;;;14.07;65.83;100107.56;4980682;28;20480;-77
2022/07/07 02:06:10;;;;;;;2.60;2.40;;;;;;;13.97;66.01;100099.47;4983745;28;20231;-76
2022/07/07 02:08:36;;;;;;;2.80;2.60;;;;;;;13.93;66.03;100096.22;4983003;28;20744;-76
2022/07/07 02:14:01;;;;;;;5.40;2.72;;;;;;;13.99;65.71;100091.41;4951280;28;20228;-76
2022/07/07 02:16:27;;;;;;;3.22;2.40;;;;;;;14.02;65.71;100093.88;4985813;28;20891;-76
2022/07/07 02:18:55;;;;;;;2.85;2.20;;;;;;;14.03;65.51;100099.03;4967794;28;20200;-76
2022/07/07 02:21:21;;;;;;;3.80;3.33;;;;;;;14.05;65.71;100093.66;4984827;28;20791;-76
2022/07/07 02:23:48;;;;;;;3.20;2.50;;;;;;;14.05;65.51;100098.94;4985272;28;20475;-76
2022/07/07 02:26:14;;;;;;;2.67;2.47;;;;;;;13.95;65.76;100101.38;4965592;28;20234;-76
2022/07/07 02:28:40;;;;;;;2.13;1.95;;;;;;;13.84;66.09;100104.75;4979449;28;20465;-76
2022/07/07 02:31:07;;;;;;;3.10;2.60;;;;;;;13.75;66.66;100102.75;4984886;28;20480;-76
2022/07/07 02:33:33;;;;;;;2.93;2.63;;;;;;;13.66;67.04;100100.72;4982465;28;20228;-76
2022/07/07 02:35:58;;;;;;;2.30;2.10;;;;;;;13.54;67.28;100099.78;4983847;28;20895;-76
2022/07/07 02:38:24;;;;;;;5.67;2.60;;;;;;;13.48;67.44;100098.41;4982153;28;20244;-76
2022/07/07 02:40:50;;;;;;;2.40;2.20;;;;;;;13.40;67.63;100103.38;4982622;28;20713;-76
2022/07/07 02:43:16;;;;;;;3.60;3.23;;;;;;;13.31;67.97;100103.97;4984657;28;20492;-76
2022/07/07 02:45:44;;;;;;;6.55;2.92;;;;;;;13.24;68.29;100106.16;4983604;28;21064;-76
2022/07/07 02:48:22;;;;;;;2.30;2.00;;;;;;;13.20;68.36;100109.09;4984836;28;20212;-75
2022/07/07 02:50:48;;;;;;;4.15;2.35;;;;;;;13.18;68.53;100106.56;4986007;28;20742;-75
2022/07/07 02:53:15;;;;;;;4.47;2.53;;;;;;;13.14;68.87;100106.88;4984664;28;20228;-76
2022/07/07 02:55:41;;;;;;;3.33;2.88;;;;;;;13.09;69.17;100111.59;4985174;28;20510;-76
2022/07/07 02:58:08;;;;;;;3.25;2.20;;;;;;;13.03;69.26;100112.84;4982815;28;20291;-77
2022/07/07 03:00:34;;;;;;;3.45;2.63;;;;;;;12.97;69.43;100114.09;4981204;28;20208;-75
2022/07/07 03:03:01;;;;;;;6.22;4.00;;;;;;;12.95;69.69;100118.63;4982844;28;20550;-77
2022/07/07 03:05:27;;;;;;;3.17;2.88;;;;;;;12.98;69.75;100122.84;4981025;28;20207;-76
2022/07/07 03:07:53;;;;;;;6.93;3.10;;;;;;;13.06;69.56;100120.56;4983629;28;20224;-75
2022/07/07 03:10:18;;;;;;;2.37;1.90;;;;;;;13.11;69.17;100122.91;4983679;28;20219;-75
2022/07/07 03:12:44;;;;;;;3.93;2.57;;;;;;;13.15;68.65;100124.38;5036809;23;20251;-81
2022/07/07 03:15:09;;;;;;;3.70;2.20;;;;;;;13.19;68.25;100123.22;4979406;28;20679;-81
2022/07/07 03:17:35;;;;;;;2.70;2.50;;;;;;;13.22;68.09;100130.94;4985095;28;20217;-81
2022/07/07 03:20:02;;;;;;;2.88;2.05;;;;;;;13.23;67.81;100132.63;4987595;28;20215;-81
2022/07/07 03:22:28;;;;;;;2.85;2.15;;;;;;;13.26;67.52;100135.94;4990629;28;20239;-82
2022/07/07 03:24:53;;;;;;;2.73;2.30;;;;;;;13.31;67.34;100135.63;4992545;28;20231;-80
2022/07/07 03:27:19;;;;;;;2.43;2.23;;;;;;;13.37;67.00;100147.59;4991252;28;20224;-80
2022/07/07 03:29:44;;;;;;;3.77;2.23;;;;;;;13.40;66.55;100140.31;4990952;28;20208;-80
2022/07/07 03:32:10;;;;;;;4.53;2.70;;;;;;;13.42;66.62;100137.53;4990886;28;20488;-79
2022/07/07 03:34:36;;;;;;;3.33;2.50;;;;;;;13.39;66.76;100143.88;4983372;28;20207;-82
2022/07/07 03:37:02;;;;;;;3.10;2.80;;;;;;;13.41;66.65;100143.78;4983528;28;20298;-80
2022/07/07 03:39:27;;;;;;;2.30;2.10;;;;;;;13.43;66.50;100134.81;4984337;28;20549;-81
2022/07/07 03:41:53;;;;;;;2.60;2.40;;;;;;;13.45;66.20;100132.94;4988835;28;20648;-80
2022/07/07 03:44:18;;;;;;;2.73;2.53;;;;;;;13.44;66.04;100125.94;4987043;28;20204;-80
2022/07/07 03:46:44;;;;;;;5.13;2.47;;;;;;;13.41;66.03;100125.31;4987858;28;20235;-82
2022/07/07 03:49:10;;;;;;;3.10;2.90;;;;;;;13.39;66.20;100121.94;4985974;28;20208;-84
2022/07/07 03:51:35;;;;;;;2.30;2.10;;;;;;;13.40;66.12;100119.19;4971497;28;20481;-84
2022/07/07 03:54:01;;;;;;;3.20;2.77;;;;;;;13.44;65.92;100125.09;4988903;28;20283;-83
2022/07/07 03:56:26;;;;;;;3.87;3.03;;;;;;;13.50;65.83;100119.41;4987308;28;20272;-83
2022/07/07 03:58:51;;;;;;;3.53;2.50;;;;;;;13.54;65.96;100101.59;4989191;28;20204;-83
2022/07/07 04:01:17;;;;;;;3.37;2.40;;;;;;;13.49;66.92;100099.25;4986241;28;20551;-83
2022/07/07 04:03:42;;;;;;;3.30;2.90;;;;;;;13.43;67.73;100102.31;4984737;28;20519;-82
2022/07/07 04:06:07;;;;;;;3.87;2.90;;;;;;;13.35;68.01;100104.63;4983178;28;20214;-84
2022/07/07 04:08:33;;;;;;;3.27;2.50;;;;;;;13.31;67.97;100103.13;4986681;28;20217;-82
2022/07/07 04:10:58;;;;;;;2.63;2.40;;;;;;;13.30;67.90;100101.44;4986627;28;20216;-83
2022/07/07 04:13:24;;;;;;;2.40;2.20;;;;;;;13.38;67.65;100099.13;4988059;28;20248;-85
2022/07/07 04:15:49;;;;;;;2.77;2.57;;;;;;;13.50;67.08;100095.66;4986494;28;20326;-84
2022/07/07 04:18:15;;;;;;;3.53;2.87;;;;;;;13.59;66.93;100081.00;4988850;28;20763;-85
2022/07/07 04:20:43;;;;;;;3.13;2.50;;;;;;;13.69;66.51;100082.03;4987197;28;20386;-82
2022/07/07 04:23:08;;;;;;;3.30;3.00;;;;;;;13.72;66.29;100074.78;4987675;28;20310;-82
2022/07/07 04:25:34;;;;;;;4.33;3.40;;;;;;;13.69;66.43;100079.41;4987682;28;20231;-83
2022/07/07 04:27:59;;;;;;;3.13;2.83;;;;;;;13.67;66.53;100083.97;4987624;28;20223;-83
2022/07/07 04:30:24;;;;;;;3.20;2.97;;;;;;;13.68;66.74;100083.84;4983873;28;20219;-82
2022/07/07 04:32:50;;;;;;;2.40;2.00;;;;;;;13.66;66.79;100084.88;4980800;28;20215;-81
2022/07/07 04:35:15;;;;;;;2.50;2.27;;;;;;;13.62;66.99;100086.91;4981807;28;20214;-81
2022/07/07 04:37:41;;;;;;;6.67;6.00;;;;;;;13.62;67.13;100105.38;4984822;28;20546;-80
2022/07/07 04:40:07;;;;;;;6.17;3.63;;;;;;;13.68;66.95;100097.03;4966615;28;20203;-80
2022/07/07 04:42:33;;;;;;;4.18;2.42;;;;;;;13.79;66.58;100098.09;4984393;28;20235;-81
2022/07/07 04:44:58;;;;;;;3.80;3.30;;;;;;;13.88;66.54;100097.44;4984567;28;20199;-80
2022/07/07 04:47:23;;;;;;;3.60;3.30;;;;;;;14.05;66.08;100102.41;4984187;28;20222;-80
2022/07/07 04:49:52;;;;;;;4.83;2.60;;;;;;;14.28;65.15;100089.38;4984932;28;20746;-80
2022/07/07 04:52:18;;;;;;;5.72;3.17;;;;;;;14.49;64.48;100094.91;4986296;28;20228;-80
2022/07/07 04:54:43;;;;;;;4.00;2.50;;;;;;;15.43;61.97;100107.41;4983865;28;20224;-80
2022/07/07 04:57:08;;;;;;;3.83;3.47;;;;;;;17.24;56.38;100087.72;4984052;28;20205;-80
2022/07/07 04:59:34;;;;;;;2.83;2.53;;;;;;;18.92;51.38;100087.28;4984889;28;20205;-80
2022/07/07 05:01:59;;;;;;;4.87;2.50;;;;;;;20.22;47.90;100085.75;4986927;28;20237;-81
2022/07/07 05:04:25;;;;;;;2.53;2.20;;;;;;;21.17;45.24;100087.13;4987088;28;20242;-80
2022/07/07 05:06:50;;;;;;;5.53;2.83;;;;;;;21.71;43.73;100089.72;4984515;28;20216;-81
2022/07/07 05:09:16;;;;;;;3.13;2.37;;;;;;;22.28;42.38;100091.88;4986796;28;20214;-81
2022/07/07 05:11:41;;;;;;;2.63;2.43;;;;;;;22.83;41.02;100088.66;4985867;28;20271;-81
2022/07/07 05:14:07;;;;;;;2.50;2.10;;;;;;;23.39;40.07;100083.53;4985822;28;20807;-80
2022/07/07 05:16:32;;;;;;;3.13;2.33;;;;;;;24.11;38.49;100077.34;4985509;28;20300;-80
2022/07/07 05:18:58;;;;;;;5.33;2.03;;;;;;;24.69;37.28;100076.06;4984136;28;20244;-81
2022/07/07 05:21:24;;;;;;;2.63;1.90;;;;;;;24.88;36.42;100075.59;4969622;28;20247;-80
2022/07/07 05:23:49;;;;;;;2.13;1.93;;;;;;;25.30;35.76;100076.13;4986006;28;21072;-80
2022/07/07 05:26:15;;;;;;;3.50;2.10;;;;;;;25.83;34.84;100072.41;4985062;28;20515;-81
2022/07/07 05:28:41;;;;;;;4.80;4.23;;;;;;;26.20;34.26;100070.66;4987627;28;20254;-80
2022/07/07 05:31:12;;;;;;;3.40;2.90;;;;;;;26.52;33.55;100075.78;4987133;28;20205;-81
2022/07/07 05:33:37;;;;;;;3.80;3.30;;;;;;;26.87;32.53;100074.94;4986469;28;20883;-81
2022/07/07 05:36:07;;;;;;;4.07;2.83;;;;;;;27.26;31.64;100075.53;4993045;28;20264;-81
2022/07/07 05:38:34;;;;;;;4.40;2.00;;;;;;;27.22;32.35;100076.94;4972921;28;20780;-81
2022/07/07 05:41:00;;;;;;;4.23;2.60;;;;;;;26.93;32.91;100076.88;4989091;28;20478;-80
2022/07/07 05:43:25;;;;;;;4.10;2.70;;;;;;;26.86;33.11;100080.53;4986031;28;20476;-81
2022/07/07 05:45:51;;;;;;;3.73;2.37;;;;;;;26.73;32.96;100070.44;4985285;28;20479;-82
2022/07/07 05:48:17;;;;;;;5.57;2.80;;;;;;;26.84;33.02;100063.69;4987442;28;21133;-81
2022/07/07 05:50:43;;;;;;;2.67;2.27;;;;;;;26.90;32.33;100071.03;4986403;28;20468;-81
2022/07/07 05:53:09;;;;;;;3.30;2.63;;;;;;;26.90;32.11;100069.16;4993253;28;20232;-82
2022/07/07 05:55:35;;;;;;;3.60;2.97;;;;;;;26.92;32.50;100071.66;4986526;28;20448;-81
2022/07/07 05:58:00;;;;;;;6.37;2.10;;;;;;;26.97;32.37;100077.31;4987918;28;21484;-82
2022/07/07 06:00:31;;;;;;;5.50;2.47;;;;;;;27.33;31.47;100068.34;4991465;28;20229;-82
2022/07/07 06:02:56;;;;;;;5.30;2.77;;;;;;;27.77;31.20;100072.56;4986610;28;20212;-82
2022/07/07 06:05:22;;;;;;;4.10;2.73;;;;;;;27.96;30.60;100077.28;4988768;28;20709;-82
2022/07/07 06:07:48;;;;;;;5.10;2.47;;;;;;;27.55;31.32;100069.94;4986718;28;20233;-82
2022/07/07 06:10:14;;;;;;;2.43;1.87;;;;;;;27.69;30.95;100062.78;4988970;28;20212;-82
2022/07/07 06:12:41;;;;;;;3.67;2.10;;;;;;;28.08;30.09;100063.22;4969390;28;20666;-82
2022/07/07 06:15:07;;;;;;;3.87;2.20;;;;;;;28.53;29.53;100063.63;4987006;28;20464;-80
2022/07/07 06:17:33;;;;;;;5.03;1.80;;;;;;;28.85;29.04;100062.84;4985721;28;20495;-82
2022/07/07 06:19:58;;;;;;;5.13;2.50;;;;;;;29.29;28.47;100069.56;4989026;28;20469;-82
2022/07/07 06:22:25;;;;;;;2.33;1.90;;;;;;;29.69;27.52;100053.31;4982595;28;20264;-82
2022/07/07 06:24:51;;;;;;;4.60;2.10;;;;;;;29.76;27.44;100062.25;4987423;28;20231;-82
2022/07/07 06:27:16;;;;;;;3.23;1.77;;;;;;;29.87;26.92;100052.66;4986015;28;20499;-82
2022/07/07 06:29:42;;;;;;;2.27;1.90;;;;;;;29.87;27.01;100059.94;4989226;28;20257;-82
2022/07/07 06:32:07;;;;;;;2.30;2.10;;;;;;;29.58;27.10;100051.22;4990566;28;20480;-81
2022/07/07 06:34:33;;;;;;;1.90;1.60;;;;;;;29.40;27.31;100051.03;4988917;28;20251;-82
2022/07/07 06:37:02;;;;;;;2.07;1.73;;;;;;;29.68;27.02;100048.13;4989827;28;20228;-82
2022/07/07 06:39:27;;;;;;;1.90;1.80;;;;;;;30.01;26.65;100045.31;4989412;28;20222;-82
2022/07/07 06:41:53;;;;;;;3.47;2.20;;;;;;;30.30;26.47;100041.25;4986489;28;20496;-81
2022/07/07 06:44:18;;;;;;;3.80;2.17;;;;;;;30.57;25.85;100055.50;4986899;28;20201;-82
2022/07/07 06:46:44;;;;;;;2.80;1.93;;;;;;;31.06;25.15;100048.50;4984746;28;20432;-83
2022/07/07 06:49:09;;;;;;;2.57;1.53;;;;;;;30.99;24.97;100055.03;4987442;28;20278;-83
2022/07/07 06:51:35;;;;;;;3.80;1.57;;;;;;;29.93;25.82;100059.09;4986984;28;20341;-82
2022/07/07 06:54:00;;;;;;;1.50;1.30;;;;;;;28.29;28.28;100068.50;4985689;28;20229;-82
2022/07/07 06:56:26;;;;;;;2.63;1.97;;;;;;;26.88;30.42;100075.78;4986070;28;20205;-81
2022/07/07 06:58:51;;;;;;;1.63;1.37;;;;;;;25.70;32.59;100074.06;4986336;28;20209;-81
2022/07/07 07:01:17;;;;;;;4.10;1.60;;;;;;;24.79;34.00;100073.13;4987050;28;20315;-81
2022/07/07 07:03:43;;;;;;;2.00;1.80;;;;;;;23.99;35.61;100076.88;4985539;28;20195;-82
2022/07/07 07:06:09;;;;;;;2.60;2.10;;;;;;;23.47;36.63;100075.47;4985574;28;20687;-82
2022/07/07 07:08:34;;;;;;;2.90;1.73;;;;;;;23.31;37.42;100079.00;4983018;28;20303;-82
2022/07/07 07:10:59;;;;;;;2.80;1.80;;;;;;;23.51;37.08;100079.47;4983515;28;20493;-82
2022/07/07 07:13:25;;;;;;;3.20;1.77;;;;;;;23.65;37.08;100080.63;4982062;28;20686;-83
2022/07/07 07:15:51;;;;;;;1.97;1.87;;;;;;;23.72;36.82;100073.59;4989962;28;20213;-83
2022/07/07 07:18:16;;;;;;;4.97;2.23;;;;;;;23.79;36.83;100082.66;4988058;28;20205;-82
2022/07/07 07:20:42;;;;;;;5.50;2.40;;;;;;;25.01;34.90;100080.38;4989163;28;20464;-82
2022/07/07 07:23:07;;;;;;;2.33;2.00;;;;;;;27.04;31.13;100074.69;4989088;28;20221;-82
2022/07/07 07:25:33;;;;;;;1.50;1.40;;;;;;;28.64;28.95;100068.44;4987249;28;20740;-83
2022/07/07 07:27:58;;;;;;;3.10;2.37;;;;;;;28.79;28.43;100079.09;4987243;28;20227;-82
2022/07/07 07:30:24;;;;;;;2.43;2.00;;;;;;;28.08;29.95;100082.13;4987218;28;20676;-82
2022/07/07 07:32:49;;;;;;;1.70;1.60;;;;;;;27.00;31.93;100085.00;4987792;28;20749;-82
2022/07/07 07:35:15;;;;;;;2.40;2.20;;;;;;;26.00;33.59;100085.69;4986291;28;20207;-82
2022/07/07 07:37:41;;;;;;;2.40;1.87;;;;;;;25.35;34.95;100085.31;4985414;28;20301;-83
2022/07/07 07:40:09;;;;;;;3.53;2.03;;;;;;;24.93;35.96;100089.34;4987987;28;20209;-82
2022/07/07 07:42:36;;;;;;;5.23;2.47;;;;;;;24.65;36.51;100091.69;4985545;28;21029;-82
2022/07/07 07:45:11;;;;;;;3.37;2.13;;;;;;;24.49;36.87;100092.63;4989855;28;20465;-83
2022/07/07 07:47:40;;;;;;;2.33;2.13;;;;;;;24.44;37.07;100086.97;4989076;28;20567;-82
2022/07/07 07:50:07;;;;;;;3.50;2.17;;;;;;;24.83;36.02;100095.97;4989526;28;20652;-82
2022/07/07 07:52:32;;;;;;;4.10;1.90;;;;;;;24.70;35.84;100093.84;4987009;28;20489;-83
2022/07/07 07:54:57;;;;;;;2.03;1.83;;;;;;;24.15;36.51;100100.97;4987309;28;20503;-81
2022/07/07 07:57:23;;;;;;;2.10;1.93;;;;;;;23.81;37.20;100101.25;4989684;28;20194;-82
2022/07/07 07:59:48;;;;;;;1.80;1.67;;;;;;;23.72;37.58;100096.91;4989364;28;20217;-82
2022/07/07 08:02:14;;;;;;;4.73;1.83;;;;;;;23.83;37.50;100101.91;4988038;28;20563;-81
2022/07/07 08:04:40;;;;;;;3.40;2.10;;;;;;;23.87;37.85;100105.91;4988840;28;20236;-81
2022/07/07 08:07:05;;;;;;;2.93;2.57;;;;;;;23.72;38.13;100102.28;4989500;28;20592;-82
2022/07/07 08:09:31;;;;;;;4.53;2.37;;;;;;;23.66;38.47;100093.03;4989595;28;20216;-82
2022/07/07 08:11:56;;;;;;;2.30;1.70;;;;;;;23.66;38.16;100097.56;4988023;28;20291;-82
2022/07/07 08:14:21;;;;;;;5.13;2.10;;;;;;;23.92;38.08;100094.66;4972432;28;20224;-82
2022/07/07 08:16:47;;;;;;;2.57;1.80;;;;;;;24.08;38.05;100086.56;4986010;28;20210;-83
2022/07/07 08:19:17;;;;;;;4.47;3.30;;;;;;;24.22;37.81;100088.53;4986278;28;20537;-83
2022/07/07 08:21:48;;;;;;;2.50;2.30;;;;;;;24.20;37.90;100084.34;4988626;28;20230;-82
2022/07/07 08:24:14;;;;;;;5.87;2.63;;;;;;;24.07;38.00;100090.28;4985449;28;20487;-82
2022/07/07 08:26:41;;;;;;;5.93;2.30;;;;;;;23.91;38.35;100087.66;4984758;28;20465;-82
2022/07/07 08:29:06;;;;;;;2.17;1.90;;;;;;;23.83;38.46;100083.13;4984174;28;20530;-82
2022/07/07 08:31:32;;;;;;;2.50;2.00;;;;;;;23.71;38.71;100080.00;4983513;28;20969;-82
2022/07/07 08:33:57;;;;;;;7.25;2.10;;;;;;;23.67;38.98;100088.50;4985012;28;20594;-81
2022/07/07 08:36:23;;;;;;;2.70;2.30;;;;;;;23.57;39.14;100088.69;4987110;28;20457;-82
2022/07/07 08:38:49;;;;;;;4.00;2.40;;;;;;;23.53;38.96;100093.56;4986328;28;20213;-82
2022/07/07 08:41:15;;;;;;;4.17;2.50;;;;;;;23.49;38.81;100078.78;4986567;28;20229;-82
2022/07/07 08:43:40;;;;;;;4.90;2.40;;;;;;;23.49;39.25;100081.47;4984931;28;20273;-82
2022/07/07 08:46:08;;;;;;;4.23;2.73;;;;;;;23.53;38.98;100074.78;4986470;28;20550;-82
2022/07/07 08:48:34;;;;;;;3.23;2.00;;;;;;;23.59;38.71;100070.56;4983422;28;20225;-82
2022/07/07 08:51:01;;;;;;;2.20;1.30;;;;;;;23.76;38.49;100066.03;4983548;28;20464;-82
2022/07/07 08:53:34;;;;;;;1.70;1.60;;;;;;;24.04;37.93;100066.47;4985201;28;20723;-82
2022/07/07 08:56:03;;;;;;;2.70;1.70;;;;;;;24.31;37.59;100069.72;4986203;28;20464;-81
2022/07/07 08:58:31;;;;;;;1.63;1.53;;;;;;;24.56;36.96;100057.84;4985965;28;20459;-80
2022/07/07 09:00:56;;;;;;;4.60;3.97;;;;;;;24.70;36.79;100062.44;4985838;28;20447;-82
2022/07/07 09:03:21;;;;;;;2.70;1.90;;;;;;;24.77;36.58;100065.25;4982699;28;20607;-82
2022/07/07 09:08:44;;;;;;;3.77;2.37;;;;;;;24.86;36.19;100076.78;4894869;29;20730;-87
2022/07/07 09:11:34;;;;;;;8.20;5.40;;;;;;;24.88;36.32;100078.28;4900825;29;20477;-90
2022/07/07 09:14:10;;;;;;;6.93;4.00;;;;;;;25.27;35.39;100074.63;4885370;29;20501;-90
2022/07/07 09:16:54;;;;;;;8.33;3.60;;;;;;;25.87;34.17;100072.03;4897804;29;20493;-90
2022/07/07 09:19:21;;;;;;;5.60;3.50;;;;;;;26.23;33.63;100078.34;4897200;29;20466;-89
2022/07/07 09:21:47;;;;;;;3.30;3.00;;;;;;;26.64;32.52;100085.91;4897554;29;20606;-90
2022/07/07 09:24:16;;;;;;;2.60;2.13;;;;;;;27.11;31.65;100076.44;4898088;29;20562;-89
2022/07/07 09:26:44;;;;;;;3.07;1.73;;;;;;;27.29;31.03;100086.75;4897903;29;20819;-90
2022/07/07 09:29:22;;;;;;;3.53;1.77;;;;;;;27.37;30.96;100075.00;4897987;29;20665;-91
2022/07/07 09:32:07;;;;;;;2.70;2.00;;;;;;;27.32;30.77;100080.97;4899653;29;20472;-90
2022/07/07 09:34:39;;;;;;;2.20;2.00;;;;;;;27.36;30.92;100082.25;4900094;29;20579;-89
2022/07/07 09:40:18;;;;;;;3.00;1.80;;;;;;;27.68;30.05;100092.63;4897316;29;20503;-90
2022/07/07 09:42:44;;;;;;;1.67;1.57;;;;;;;27.59;30.20;100084.69;4897230;29;20471;-90
2022/07/07 09:45:12;;;;;;;3.63;1.53;;;;;;;27.54;30.49;100089.03;4879734;29;20894;-90
2022/07/07 09:47:40;;;;;;;2.53;2.00;;;;;;;27.35;30.09;100096.78;4895644;29;20216;-89
2022/07/07 09:50:11;;;;;;;1.83;1.33;;;;;;;27.15;30.16;100101.97;4895920;29;20485;-88
2022/07/07 09:52:45;;;;;;;2.20;1.37;;;;;;;26.98;30.23;100105.09;4896668;29;20559;-88
2022/07/07 09:55:15;;;;;;;2.40;1.70;;;;;;;26.34;31.12;100095.88;4896912;29;20471;-91
2022/07/07 09:57:42;;;;;;;2.37;1.60;;;;;;;25.88;32.72;100098.78;4895300;29;20468;-89
2022/07/07 10:00:08;;;;;;;6.60;2.03;;;;;;;25.36;33.48;100097.75;4894966;29;20514;-88
2022/07/07 10:02:44;;;;;;;3.40;2.30;;;;;;;24.99;34.21;100100.38;4880149;29;20521;-89
2022/07/07 10:05:09;;;;;;;3.30;2.13;;;;;;;24.76;34.99;100109.25;4906668;29;21088;-90
2022/07/07 10:07:42;;;;;;;1.87;1.70;;;;;;;24.66;35.57;100105.97;4912867;29;20581;-89
2022/07/07 10:10:10;;;;;;;3.00;1.70;;;;;;;24.71;35.78;100101.75;4916144;29;20468;-90
2022/07/07 10:12:45;;;;;;;2.13;1.93;;;;;;;25.05;35.70;100105.88;4915363;29;20854;-89
2022/07/07 10:15:29;;;;;;;3.03;1.70;;;;;;;25.24;35.64;100099.19;4915740;29;20462;-89
2022/07/07 10:17:56;;;;;;;2.93;1.60;;;;;;;25.25;35.64;100100.88;4915381;29;20565;-88
2022/07/07 10:20:21;;;;;;;3.10;2.07;;;;;;;25.16;35.79;100110.84;4916173;29;20470;-90
2022/07/07 10:22:47;;;;;;;1.90;1.60;;;;;;;25.09;35.94;100100.97;4917631;29;20995;-89
2022/07/07 10:25:16;;;;;;;2.90;1.50;;;;;;;24.99;36.22;100092.31;4917629;29;20314;-91
2022/07/07 10:27:44;;;;;;;3.47;2.10;;;;;;;24.95;36.83;100095.38;4915457;29;20498;-90
2022/07/07 10:30:29;;;;;;;2.90;1.90;;;;;;;24.91;36.82;100091.34;4915880;29;20508;-89
2022/07/07 10:33:07;;;;;;;4.00;2.33;;;;;;;25.11;36.77;100077.44;4919130;29;21379;-90
2022/07/07 10:35:41;;;;;;;5.93;1.83;;;;;;;25.36;36.16;100078.94;4915992;29;20213;-91
2022/07/07 10:38:20;;;;;;;2.47;1.90;;;;;;;25.52;35.96;100082.47;4918030;29;20467;-90
2022/07/07 10:40:52;;;;;;;4.67;1.80;;;;;;;25.43;35.94;100084.41;4916990;29;21047;-89
2022/07/07 10:43:33;;;;;;;1.90;1.80;;;;;;;25.15;36.52;100094.91;4925484;29;20473;-88
2022/07/07 10:46:03;;;;;;;2.17;2.07;;;;;;;24.99;36.55;100089.63;4910073;29;20469;-90
2022/07/07 10:48:46;;;;;;;3.13;2.27;;;;;;;24.91;37.26;100085.16;4926220;29;20477;-88
2022/07/07 10:51:14;;;;;;;1.90;1.47;;;;;;;24.67;37.74;100080.78;4933919;29;20964;-89
2022/07/07 10:53:54;;;;;;;4.43;2.07;;;;;;;24.57;38.34;100081.00;4939536;28;20766;-88
2022/07/07 10:56:19;;;;;;;4.20;2.47;;;;;;;24.52;38.51;100083.41;4927040;28;20470;-87
2022/07/07 10:58:59;;;;;;;2.80;1.93;;;;;;;24.45;38.87;100094.00;4920966;29;20463;-89
2022/07/07 11:01:31;;;;;;;2.20;1.67;;;;;;;24.35;38.76;100098.69;4926222;29;20342;-88
2022/07/07 11:03:57;;;;;;;4.70;2.20;;;;;;;24.37;38.72;100099.38;4926096;29;20990;-88
2022/07/07 11:06:23;;;;;;;4.20;2.17;;;;;;;24.34;38.81;100099.72;4922228;29;20246;-88
2022/07/07 11:08:57;;;;;;;2.43;1.80;;;;;;;24.31;39.10;100096.56;4920073;29;20506;-90
2022/07/07 11:11:23;;;;;;;1.87;1.70;;;;;;;24.32;38.86;100103.59;4920623;29;20567;-88
2022/07/07 11:14:05;;;;;;;3.10;2.03;;;;;;;24.32;38.78;100106.28;4921122;29;20479;-88
2022/07/07 11:16:30;;;;;;;2.60;2.00;;;;;;;24.29;38.90;100102.09;4920258;29;20248;-90
2022/07/07 11:18:58;;;;;;;2.90;2.23;;;;;;;24.30;38.81;100101.06;4920258;29;20470;-89
2022/07/07 11:21:35;;;;;;;1.63;1.53;;;;;;;24.44;38.68;100103.06;4920918;29;20215;-88
2022/07/07 11:24:02;;;;;;;2.53;1.90;;;;;;;24.64;38.45;100103.44;4919856;29;20469;-90
2022/07/07 11:26:28;;;;;;;2.77;1.87;;;;;;;24.89;38.10;100104.13;4917739;29;20550;-88
2022/07/07 11:28:56;;;;;;;3.33;1.90;;;;;;;25.20;37.78;100092.53;4917521;29;21258;-88
2022/07/07 11:31:26;;;;;;;2.77;1.93;;;;;;;25.41;36.92;100094.53;4919177;29;20312;-89
2022/07/07 11:33:56;;;;;;;2.10;1.80;;;;;;;25.61;36.58;100101.03;4919375;29;20459;-89